sensor_id;sensor_type;location;lat;lon;timestamp;temperature;humidity
770;DHT22;368;48.698;9.116;2022-08-21T00:01:53;14.10;99.90
770;DHT22;368;48.698;9.116;2022-08-21T00:04:20;14.10;99.90
770;DHT22;368;48.698;9.116;2022-08-21T00:06:47;14.00;99.90
770;DHT22;368;48.698;9.116;2022-08-21T00:09:14;14.10;99.90
770;DHT22;368;48.698;9.116;2022-08-21T00:11:41;14.10;99.90
770;DHT22;368;48.698;9.116;2022-08-21T00:14:09;14.10;99.90
770;DHT22;368;48.698;9.116;2022-08-21T00:16:36;13.90;99.90
770;DHT22;368;48.698;9.116;2022-08-21T00:19:04;14.10;99.90
770;DHT22;368;48.698;9.116;2022-08-21T00:21:32;13.90;99.90
770;DHT22;368;48.698;9.116;2022-08-21T00:23:59;14.00;99.90
770;DHT22;368;48.698;9.116;2022-08-21T00:26:26;14.20;99.90
770;DHT22;368;48.698;9.116;2022-08-21T00:28:53;13.90;99.90
770;DHT22;368;48.698;9.116;2022-08-21T00:31:21;14.20;99.90
770;DHT22;368;48.698;9.116;2022-08-21T00:33:48;14.30;99.90
770;DHT22;368;48.698;9.116;2022-08-21T00:36:15;14.50;99.90
770;DHT22;368;48.698;9.116;2022-08-21T00:38:42;14.50;99.90
770;DHT22;368;48.698;9.116;2022-08-21T00:41:10;14.70;99.90
770;DHT22;368;48.698;9.116;2022-08-21T00:43:38;14.70;99.90
770;DHT22;368;48.698;9.116;2022-08-21T00:46:06;14.30;99.90
770;DHT22;368;48.698;9.116;2022-08-21T00:48:34;14.10;99.90
770;DHT22;368;48.698;9.116;2022-08-21T00:51:04;14.20;99.90
770;DHT22;368;48.698;9.116;2022-08-21T00:53:32;14.10;99.90
770;DHT22;368;48.698;9.116;2022-08-21T00:56:02;13.80;99.90
770;DHT22;368;48.698;9.116;2022-08-21T00:58:31;14.00;99.90
770;DHT22;368;48.698;9.116;2022-08-21T01:01:03;13.90;99.90
770;DHT22;368;48.698;9.116;2022-08-21T01:03:30;13.60;99.90
770;DHT22;368;48.698;9.116;2022-08-21T01:05:58;13.60;99.90
770;DHT22;368;48.698;9.116;2022-08-21T01:08:26;13.30;99.90
770;DHT22;368;48.698;9.116;2022-08-21T01:10:54;13.50;99.90
770;DHT22;368;48.698;9.116;2022-08-21T01:13:23;13.40;99.90
770;DHT22;368;48.698;9.116;2022-08-21T01:15:53;13.50;99.90
770;DHT22;368;48.698;9.116;2022-08-21T01:18:20;13.40;99.90
770;DHT22;368;48.698;9.116;2022-08-21T01:21:04;13.70;99.90
770;DHT22;368;48.698;9.116;2022-08-21T01:23:32;13.50;99.90
770;DHT22;368;48.698;9.116;2022-08-21T01:25:59;13.30;99.90
770;DHT22;368;48.698;9.116;2022-08-21T01:28:28;13.30;99.90
770;DHT22;368;48.698;9.116;2022-08-21T01:30:58;13.60;99.90
770;DHT22;368;48.698;9.116;2022-08-21T01:33:26;13.50;99.90
770;DHT22;368;48.698;9.116;2022-08-21T01:35:53;13.50;99.90
770;DHT22;368;48.698;9.116;2022-08-21T01:38:21;13.70;99.90
770;DHT22;368;48.698;9.116;2022-08-21T01:40:48;13.40;99.90
770;DHT22;368;48.698;9.116;2022-08-21T01:43:15;13.70;99.90
770;DHT22;368;48.698;9.116;2022-08-21T01:45:42;13.70;99.90
770;DHT22;368;48.698;9.116;2022-08-21T01:48:08;13.70;99.90
770;DHT22;368;48.698;9.116;2022-08-21T01:50:35;14.00;99.90
770;DHT22;368;48.698;9.116;2022-08-21T01:53:02;13.60;99.90
770;DHT22;368;48.698;9.116;2022-08-21T01:55:30;13.80;99.90
770;DHT22;368;48.698;9.116;2022-08-21T01:57:58;13.70;99.90
770;DHT22;368;48.698;9.116;2022-08-21T02:00:25;13.70;99.90
770;DHT22;368;48.698;9.116;2022-08-21T02:02:52;13.40;99.90
770;DHT22;368;48.698;9.116;2022-08-21T02:05:19;13.30;99.90
770;DHT22;368;48.698;9.116;2022-08-21T02:07:48;13.30;99.90
770;DHT22;368;48.698;9.116;2022-08-21T02:10:18;13.70;99.90
770;DHT22;368;48.698;9.116;2022-08-21T02:12:46;13.50;99.90
770;DHT22;368;48.698;9.116;2022-08-21T02:15:13;13.80;99.90
770;DHT22;368;48.698;9.116;2022-08-21T02:17:43;13.60;99.90
770;DHT22;368;48.698;9.116;2022-08-21T02:20:20;13.40;99.90
770;DHT22;368;48.698;9.116;2022-08-21T02:22:47;13.30;99.90
770;DHT22;368;48.698;9.116;2022-08-21T02:25:15;13.30;99.90
770;DHT22;368;48.698;9.116;2022-08-21T02:27:44;13.00;99.90
770;DHT22;368;48.698;9.116;2022-08-21T02:30:16;12.90;99.90
770;DHT22;368;48.698;9.116;2022-08-21T02:32:43;12.30;99.90
770;DHT22;368;48.698;9.116;2022-08-21T02:35:10;12.50;99.90
770;DHT22;368;48.698;9.116;2022-08-21T02:37:43;12.60;99.90
770;DHT22;368;48.698;9.116;2022-08-21T02:40:11;13.00;99.90
770;DHT22;368;48.698;9.116;2022-08-21T02:42:37;12.80;99.90
770;DHT22;368;48.698;9.116;2022-08-21T02:45:06;12.90;99.90
770;DHT22;368;48.698;9.116;2022-08-21T02:47:34;12.90;99.90
770;DHT22;368;48.698;9.116;2022-08-21T02:50:00;13.10;99.90
770;DHT22;368;48.698;9.116;2022-08-21T02:52:27;12.60;99.90
770;DHT22;368;48.698;9.116;2022-08-21T02:54:54;12.50;99.90
770;DHT22;368;48.698;9.116;2022-08-21T02:57:21;12.60;99.90
770;DHT22;368;48.698;9.116;2022-08-21T02:59:48;12.30;99.90
770;DHT22;368;48.698;9.116;2022-08-21T03:02:14;12.20;99.90
770;DHT22;368;48.698;9.116;2022-08-21T03:04:43;12.40;99.90
770;DHT22;368;48.698;9.116;2022-08-21T03:07:09;12.20;99.90
770;DHT22;368;48.698;9.116;2022-08-21T03:09:36;12.10;99.90
770;DHT22;368;48.698;9.116;2022-08-21T03:12:03;12.00;99.90
770;DHT22;368;48.698;9.116;2022-08-21T03:14:30;12.00;99.90
770;DHT22;368;48.698;9.116;2022-08-21T03:16:57;11.90;99.90
770;DHT22;368;48.698;9.116;2022-08-21T03:19:24;11.70;99.90
770;DHT22;368;48.698;9.116;2022-08-21T03:21:52;11.70;99.90
770;DHT22;368;48.698;9.116;2022-08-21T03:24:19;11.80;99.90
770;DHT22;368;48.698;9.116;2022-08-21T03:26:46;12.00;99.90
770;DHT22;368;48.698;9.116;2022-08-21T03:29:13;11.90;99.90
770;DHT22;368;48.698;9.116;2022-08-21T03:31:39;11.80;99.90
770;DHT22;368;48.698;9.116;2022-08-21T03:34:06;11.80;99.90
770;DHT22;368;48.698;9.116;2022-08-21T03:36:33;11.80;99.90
770;DHT22;368;48.698;9.116;2022-08-21T03:39:01;11.70;99.90
770;DHT22;368;48.698;9.116;2022-08-21T03:41:28;11.80;99.90
770;DHT22;368;48.698;9.116;2022-08-21T03:43:55;11.80;99.90
770;DHT22;368;48.698;9.116;2022-08-21T03:46:22;11.60;99.90
770;DHT22;368;48.698;9.116;2022-08-21T03:48:49;11.70;99.90
770;DHT22;368;48.698;9.116;2022-08-21T03:51:17;11.50;99.90
770;DHT22;368;48.698;9.116;2022-08-21T03:53:43;11.30;99.90
770;DHT22;368;48.698;9.116;2022-08-21T03:56:12;11.40;99.90
770;DHT22;368;48.698;9.116;2022-08-21T03:58:38;11.70;99.90
770;DHT22;368;48.698;9.116;2022-08-21T04:01:06;11.60;99.90
770;DHT22;368;48.698;9.116;2022-08-21T04:03:35;11.30;99.90
770;DHT22;368;48.698;9.116;2022-08-21T04:06:02;11.10;99.90
770;DHT22;368;48.698;9.116;2022-08-21T04:08:29;11.00;99.90
770;DHT22;368;48.698;9.116;2022-08-21T04:10:57;11.20;99.90
770;DHT22;368;48.698;9.116;2022-08-21T04:13:26;11.20;99.90
770;DHT22;368;48.698;9.116;2022-08-21T04:15:54;11.20;99.90
770;DHT22;368;48.698;9.116;2022-08-21T04:18:21;11.30;99.90
770;DHT22;368;48.698;9.116;2022-08-21T04:20:50;11.30;99.90
770;DHT22;368;48.698;9.116;2022-08-21T04:23:18;11.40;99.90
770;DHT22;368;48.698;9.116;2022-08-21T04:25:45;11.50;99.90
770;DHT22;368;48.698;9.116;2022-08-21T04:28:12;11.40;99.90
770;DHT22;368;48.698;9.116;2022-08-21T04:30:40;11.30;99.90
770;DHT22;368;48.698;9.116;2022-08-21T04:33:07;11.10;99.90
770;DHT22;368;48.698;9.116;2022-08-21T04:35:33;11.00;99.90
770;DHT22;368;48.698;9.116;2022-08-21T04:38:00;10.80;99.90
770;DHT22;368;48.698;9.116;2022-08-21T04:40:28;11.00;99.90
770;DHT22;368;48.698;9.116;2022-08-21T04:42:58;11.20;99.90
770;DHT22;368;48.698;9.116;2022-08-21T04:45:28;11.30;99.90
770;DHT22;368;48.698;9.116;2022-08-21T04:47:59;11.20;99.90
770;DHT22;368;48.698;9.116;2022-08-21T04:50:28;11.30;99.90
770;DHT22;368;48.698;9.116;2022-08-21T04:52:56;11.50;99.90
770;DHT22;368;48.698;9.116;2022-08-21T04:55:24;11.40;99.90
770;DHT22;368;48.698;9.116;2022-08-21T04:57:53;11.30;99.90
770;DHT22;368;48.698;9.116;2022-08-21T05:00:20;11.40;99.90
770;DHT22;368;48.698;9.116;2022-08-21T05:02:51;11.30;99.90
770;DHT22;368;48.698;9.116;2022-08-21T05:05:23;11.50;99.90
770;DHT22;368;48.698;9.116;2022-08-21T05:07:50;11.50;99.90
770;DHT22;368;48.698;9.116;2022-08-21T05:10:18;11.60;99.90
770;DHT22;368;48.698;9.116;2022-08-21T05:12:45;11.80;99.90
770;DHT22;368;48.698;9.116;2022-08-21T05:15:12;11.60;99.90
770;DHT22;368;48.698;9.116;2022-08-21T05:17:39;11.80;99.90
770;DHT22;368;48.698;9.116;2022-08-21T05:20:07;11.80;99.90
770;DHT22;368;48.698;9.116;2022-08-21T05:22:35;11.70;99.90
770;DHT22;368;48.698;9.116;2022-08-21T05:25:03;12.10;99.90
770;DHT22;368;48.698;9.116;2022-08-21T05:27:30;11.90;99.90
770;DHT22;368;48.698;9.116;2022-08-21T05:29:57;12.40;99.90
770;DHT22;368;48.698;9.116;2022-08-21T05:32:24;12.50;99.90
770;DHT22;368;48.698;9.116;2022-08-21T05:34:53;12.50;99.90
770;DHT22;368;48.698;9.116;2022-08-21T05:37:20;12.50;99.90
770;DHT22;368;48.698;9.116;2022-08-21T05:39:49;12.40;99.90
770;DHT22;368;48.698;9.116;2022-08-21T05:42:15;13.00;99.90
770;DHT22;368;48.698;9.116;2022-08-21T05:44:42;13.40;99.90
770;DHT22;368;48.698;9.116;2022-08-21T05:47:10;13.60;99.90
770;DHT22;368;48.698;9.116;2022-08-21T05:49:37;13.80;99.90
770;DHT22;368;48.698;9.116;2022-08-21T05:52:04;13.80;99.90
770;DHT22;368;48.698;9.116;2022-08-21T05:54:31;14.00;99.90
770;DHT22;368;48.698;9.116;2022-08-21T05:56:59;14.30;99.90
770;DHT22;368;48.698;9.116;2022-08-21T05:59:26;14.50;99.90
770;DHT22;368;48.698;9.116;2022-08-21T06:01:53;14.80;99.90
770;DHT22;368;48.698;9.116;2022-08-21T06:04:20;15.20;99.90
770;DHT22;368;48.698;9.116;2022-08-21T06:06:46;15.50;99.90
770;DHT22;368;48.698;9.116;2022-08-21T06:09:13;15.90;99.90
770;DHT22;368;48.698;9.116;2022-08-21T06:11:40;16.10;99.90
770;DHT22;368;48.698;9.116;2022-08-21T06:14:08;16.30;99.90
770;DHT22;368;48.698;9.116;2022-08-21T06:16:35;16.70;99.90
770;DHT22;368;48.698;9.116;2022-08-21T06:19:02;17.00;99.90
770;DHT22;368;48.698;9.116;2022-08-21T06:21:29;17.00;99.90
770;DHT22;368;48.698;9.116;2022-08-21T06:23:56;17.00;99.90
770;DHT22;368;48.698;9.116;2022-08-21T06:26:22;17.10;99.90
770;DHT22;368;48.698;9.116;2022-08-21T06:28:50;17.40;99.90
770;DHT22;368;48.698;9.116;2022-08-21T06:31:19;17.60;99.90
770;DHT22;368;48.698;9.116;2022-08-21T06:33:47;17.90;99.90
770;DHT22;368;48.698;9.116;2022-08-21T06:36:14;18.10;99.90
770;DHT22;368;48.698;9.116;2022-08-21T06:38:41;18.30;99.90
770;DHT22;368;48.698;9.116;2022-08-21T06:41:08;18.60;99.90
770;DHT22;368;48.698;9.116;2022-08-21T06:43:35;18.90;99.80
770;DHT22;368;48.698;9.116;2022-08-21T06:46:02;19.10;99.20
770;DHT22;368;48.698;9.116;2022-08-21T06:48:31;19.10;99.40
770;DHT22;368;48.698;9.116;2022-08-21T06:50:59;19.20;99.00
770;DHT22;368;48.698;9.116;2022-08-21T06:53:26;19.20;98.80
770;DHT22;368;48.698;9.116;2022-08-21T06:55:53;19.30;98.60
770;DHT22;368;48.698;9.116;2022-08-21T06:58:20;19.60;97.70
770;DHT22;368;48.698;9.116;2022-08-21T07:00:50;20.00;97.30
770;DHT22;368;48.698;9.116;2022-08-21T07:03:23;20.00;97.00
770;DHT22;368;48.698;9.116;2022-08-21T07:05:51;20.40;96.20
770;DHT22;368;48.698;9.116;2022-08-21T07:08:18;20.70;96.10
770;DHT22;368;48.698;9.116;2022-08-21T07:10:46;20.90;95.30
770;DHT22;368;48.698;9.116;2022-08-21T07:13:13;21.30;94.70
770;DHT22;368;48.698;9.116;2022-08-21T07:15:40;21.70;93.90
770;DHT22;368;48.698;9.116;2022-08-21T07:18:07;22.30;93.00
770;DHT22;368;48.698;9.116;2022-08-21T07:20:34;22.10;92.60
770;DHT22;368;48.698;9.116;2022-08-21T07:23:09;22.60;92.50
770;DHT22;368;48.698;9.116;2022-08-21T07:25:37;22.70;91.50
770;DHT22;368;48.698;9.116;2022-08-21T07:28:04;22.40;92.20
770;DHT22;368;48.698;9.116;2022-08-21T07:30:31;23.50;90.40
770;DHT22;368;48.698;9.116;2022-08-21T07:32:58;23.50;90.30
770;DHT22;368;48.698;9.116;2022-08-21T07:35:25;23.70;90.10
770;DHT22;368;48.698;9.116;2022-08-21T07:37:53;23.60;90.10
770;DHT22;368;48.698;9.116;2022-08-21T07:40:22;24.60;88.30
770;DHT22;368;48.698;9.116;2022-08-21T07:42:49;25.30;85.20
770;DHT22;368;48.698;9.116;2022-08-21T07:45:18;24.90;84.60
770;DHT22;368;48.698;9.116;2022-08-21T07:47:46;24.50;87.40
770;DHT22;368;48.698;9.116;2022-08-21T07:50:13;26.10;85.50
770;DHT22;368;48.698;9.116;2022-08-21T07:52:41;26.20;78.80
770;DHT22;368;48.698;9.116;2022-08-21T07:55:10;26.10;80.40
770;DHT22;368;48.698;9.116;2022-08-21T07:57:39;26.80;77.90
770;DHT22;368;48.698;9.116;2022-08-21T08:00:10;27.60;73.30
770;DHT22;368;48.698;9.116;2022-08-21T08:02:37;26.90;73.60
770;DHT22;368;48.698;9.116;2022-08-21T08:05:07;26.60;75.00
770;DHT22;368;48.698;9.116;2022-08-21T08:07:34;26.90;75.70
770;DHT22;368;48.698;9.116;2022-08-21T08:10:01;27.60;71.10
770;DHT22;368;48.698;9.116;2022-08-21T08:12:28;28.00;70.40
770;DHT22;368;48.698;9.116;2022-08-21T08:14:58;28.30;67.60
770;DHT22;368;48.698;9.116;2022-08-21T08:17:27;28.20;67.30
770;DHT22;368;48.698;9.116;2022-08-21T08:19:54;27.80;69.90
770;DHT22;368;48.698;9.116;2022-08-21T08:22:22;28.50;68.80
770;DHT22;368;48.698;9.116;2022-08-21T08:24:50;29.50;64.70
770;DHT22;368;48.698;9.116;2022-08-21T08:27:18;28.50;67.10
770;DHT22;368;48.698;9.116;2022-08-21T08:29:45;29.20;65.10
770;DHT22;368;48.698;9.116;2022-08-21T08:32:14;27.90;67.60
770;DHT22;368;48.698;9.116;2022-08-21T08:34:41;28.70;65.90
770;DHT22;368;48.698;9.116;2022-08-21T08:37:09;29.20;62.90
770;DHT22;368;48.698;9.116;2022-08-21T08:39:36;29.30;62.80
770;DHT22;368;48.698;9.116;2022-08-21T08:42:07;28.80;63.30
770;DHT22;368;48.698;9.116;2022-08-21T08:44:35;29.90;60.30
770;DHT22;368;48.698;9.116;2022-08-21T08:47:03;29.50;58.90
770;DHT22;368;48.698;9.116;2022-08-21T08:49:37;29.50;60.40
770;DHT22;368;48.698;9.116;2022-08-21T08:52:10;29.60;60.50
770;DHT22;368;48.698;9.116;2022-08-21T08:54:45;31.00;57.40
770;DHT22;368;48.698;9.116;2022-08-21T08:57:17;31.40;56.70
770;DHT22;368;48.698;9.116;2022-08-21T08:59:46;30.90;56.80
770;DHT22;368;48.698;9.116;2022-08-21T09:02:15;30.70;57.00
770;DHT22;368;48.698;9.116;2022-08-21T09:04:47;30.20;58.40
770;DHT22;368;48.698;9.116;2022-08-21T09:07:22;30.60;57.10
770;DHT22;368;48.698;9.116;2022-08-21T09:10:02;31.20;55.70
770;DHT22;368;48.698;9.116;2022-08-21T09:12:38;30.00;58.10
770;DHT22;368;48.698;9.116;2022-08-21T09:15:12;30.40;57.10
770;DHT22;368;48.698;9.116;2022-08-21T09:17:59;31.30;56.20
770;DHT22;368;48.698;9.116;2022-08-21T09:20:38;31.00;55.30
770;DHT22;368;48.698;9.116;2022-08-21T09:23:15;31.20;55.30
770;DHT22;368;48.698;9.116;2022-08-21T09:25:53;32.20;52.20
770;DHT22;368;48.698;9.116;2022-08-21T09:28:21;34.00;51.80
770;DHT22;368;48.698;9.116;2022-08-21T09:30:49;33.30;51.70
770;DHT22;368;48.698;9.116;2022-08-21T09:33:17;32.70;52.00
770;DHT22;368;48.698;9.116;2022-08-21T09:35:54;33.00;51.20
770;DHT22;368;48.698;9.116;2022-08-21T09:38:29;34.50;50.00
770;DHT22;368;48.698;9.116;2022-08-21T09:41:01;35.00;48.90
770;DHT22;368;48.698;9.116;2022-08-21T09:43:29;32.90;50.40
770;DHT22;368;48.698;9.116;2022-08-21T09:46:08;32.90;50.40
770;DHT22;368;48.698;9.116;2022-08-21T09:48:42;30.70;53.80
770;DHT22;368;48.698;9.116;2022-08-21T09:51:13;30.10;55.30
770;DHT22;368;48.698;9.116;2022-08-21T09:53:45;30.30;54.30
770;DHT22;368;48.698;9.116;2022-08-21T09:56:20;32.00;53.60
770;DHT22;368;48.698;9.116;2022-08-21T09:59:14;31.80;51.60
770;DHT22;368;48.698;9.116;2022-08-21T10:01:43;32.70;51.20
770;DHT22;368;48.698;9.116;2022-08-21T10:04:11;34.10;49.30
770;DHT22;368;48.698;9.116;2022-08-21T10:06:39;34.60;47.90
770;DHT22;368;48.698;9.116;2022-08-21T10:09:08;33.70;48.80
770;DHT22;368;48.698;9.116;2022-08-21T10:11:35;33.00;48.50
770;DHT22;368;48.698;9.116;2022-08-21T10:14:12;29.70;52.20
770;DHT22;368;48.698;9.116;2022-08-21T10:16:46;27.70;57.00
770;DHT22;368;48.698;9.116;2022-08-21T10:19:23;26.90;57.70
770;DHT22;368;48.698;9.116;2022-08-21T10:22:00;27.40;58.50
770;DHT22;368;48.698;9.116;2022-08-21T10:24:31;30.20;55.50
770;DHT22;368;48.698;9.116;2022-08-21T10:27:10;32.10;51.10
770;DHT22;368;48.698;9.116;2022-08-21T10:29:47;31.60;51.90
770;DHT22;368;48.698;9.116;2022-08-21T10:32:26;31.60;51.00
770;DHT22;368;48.698;9.116;2022-08-21T10:35:00;33.20;50.90
770;DHT22;368;48.698;9.116;2022-08-21T10:37:40;33.50;48.10
770;DHT22;368;48.698;9.116;2022-08-21T10:40:17;33.80;47.40
770;DHT22;368;48.698;9.116;2022-08-21T10:42:52;33.30;48.70
770;DHT22;368;48.698;9.116;2022-08-21T10:45:36;34.00;47.00
770;DHT22;368;48.698;9.116;2022-08-21T10:48:07;33.70;46.60
770;DHT22;368;48.698;9.116;2022-08-21T10:50:41;32.70;48.90
770;DHT22;368;48.698;9.116;2022-08-21T10:53:32;33.80;48.30
770;DHT22;368;48.698;9.116;2022-08-21T10:56:05;34.20;47.70
770;DHT22;368;48.698;9.116;2022-08-21T10:58:39;32.00;48.50
770;DHT22;368;48.698;9.116;2022-08-21T11:01:09;32.50;48.10
770;DHT22;368;48.698;9.116;2022-08-21T11:03:42;32.80;49.40
770;DHT22;368;48.698;9.116;2022-08-21T11:06:14;34.70;46.70
770;DHT22;368;48.698;9.116;2022-08-21T11:08:45;34.60;45.50
770;DHT22;368;48.698;9.116;2022-08-21T11:11:18;34.50;47.60
770;DHT22;368;48.698;9.116;2022-08-21T11:13:49;33.90;47.20
770;DHT22;368;48.698;9.116;2022-08-21T11:16:25;34.50;46.40
770;DHT22;368;48.698;9.116;2022-08-21T11:18:57;34.10;46.80
770;DHT22;368;48.698;9.116;2022-08-21T11:21:32;34.00;46.90
770;DHT22;368;48.698;9.116;2022-08-21T11:24:14;32.30;47.90
770;DHT22;368;48.698;9.116;2022-08-21T11:26:46;33.10;48.20
770;DHT22;368;48.698;9.116;2022-08-21T11:29:19;31.70;49.40
770;DHT22;368;48.698;9.116;2022-08-21T11:32:03;33.20;47.50
770;DHT22;368;48.698;9.116;2022-08-21T11:34:51;33.00;48.40
770;DHT22;368;48.698;9.116;2022-08-21T11:37:33;34.60;47.20
770;DHT22;368;48.698;9.116;2022-08-21T11:40:09;34.10;47.00
770;DHT22;368;48.698;9.116;2022-08-21T11:42:44;35.00;46.20
770;DHT22;368;48.698;9.116;2022-08-21T11:45:22;32.50;48.20
770;DHT22;368;48.698;9.116;2022-08-21T11:47:58;31.90;49.40
770;DHT22;368;48.698;9.116;2022-08-21T11:50:29;31.80;49.50
770;DHT22;368;48.698;9.116;2022-08-21T11:52:59;32.40;48.00
770;DHT22;368;48.698;9.116;2022-08-21T11:55:33;33.30;48.20
770;DHT22;368;48.698;9.116;2022-08-21T11:58:05;31.10;49.70
770;DHT22;368;48.698;9.116;2022-08-21T12:00:36;29.20;52.40
770;DHT22;368;48.698;9.116;2022-08-21T12:03:09;28.90;52.50
770;DHT22;368;48.698;9.116;2022-08-21T12:05:40;28.50;52.80
770;DHT22;368;48.698;9.116;2022-08-21T12:08:12;28.20;54.10
770;DHT22;368;48.698;9.116;2022-08-21T12:10:45;27.30;55.10
770;DHT22;368;48.698;9.116;2022-08-21T12:13:23;26.50;56.30
770;DHT22;368;48.698;9.116;2022-08-21T12:15:50;26.70;57.00
770;DHT22;368;48.698;9.116;2022-08-21T12:18:23;26.70;57.30
770;DHT22;368;48.698;9.116;2022-08-21T12:21:02;26.70;57.50
770;DHT22;368;48.698;9.116;2022-08-21T12:23:32;26.90;58.00
770;DHT22;368;48.698;9.116;2022-08-21T12:26:10;27.30;57.20
770;DHT22;368;48.698;9.116;2022-08-21T12:28:39;27.30;56.90
770;DHT22;368;48.698;9.116;2022-08-21T12:31:18;27.30;56.00
770;DHT22;368;48.698;9.116;2022-08-21T12:33:51;27.20;55.70
770;DHT22;368;48.698;9.116;2022-08-21T12:36:22;28.30;56.70
770;DHT22;368;48.698;9.116;2022-08-21T12:38:54;31.70;50.40
770;DHT22;368;48.698;9.116;2022-08-21T12:41:27;34.00;46.70
770;DHT22;368;48.698;9.116;2022-08-21T12:43:59;34.30;46.70
770;DHT22;368;48.698;9.116;2022-08-21T12:46:32;31.70;49.50
770;DHT22;368;48.698;9.116;2022-08-21T12:49:06;32.60;47.50
770;DHT22;368;48.698;9.116;2022-08-21T12:51:46;32.80;48.30
770;DHT22;368;48.698;9.116;2022-08-21T12:54:24;34.20;46.70
770;DHT22;368;48.698;9.116;2022-08-21T12:57:00;33.80;47.20
770;DHT22;368;48.698;9.116;2022-08-21T12:59:29;34.40;45.70
770;DHT22;368;48.698;9.116;2022-08-21T13:01:59;36.20;43.20
770;DHT22;368;48.698;9.116;2022-08-21T13:04:33;34.80;44.00
770;DHT22;368;48.698;9.116;2022-08-21T13:07:05;31.70;47.00
770;DHT22;368;48.698;9.116;2022-08-21T13:09:39;30.50;49.20
770;DHT22;368;48.698;9.116;2022-08-21T13:12:09;28.90;51.40
770;DHT22;368;48.698;9.116;2022-08-21T13:14:39;28.60;52.50
770;DHT22;368;48.698;9.116;2022-08-21T13:17:06;28.00;53.90
770;DHT22;368;48.698;9.116;2022-08-21T13:19:34;27.80;54.30
770;DHT22;368;48.698;9.116;2022-08-21T13:22:02;27.00;55.40
770;DHT22;368;48.698;9.116;2022-08-21T13:24:31;26.60;56.10
770;DHT22;368;48.698;9.116;2022-08-21T13:26:59;26.30;56.60
770;DHT22;368;48.698;9.116;2022-08-21T13:29:31;26.50;56.00
770;DHT22;368;48.698;9.116;2022-08-21T13:32:03;26.00;56.30
770;DHT22;368;48.698;9.116;2022-08-21T13:34:34;26.00;56.80
770;DHT22;368;48.698;9.116;2022-08-21T13:37:04;26.00;57.10
770;DHT22;368;48.698;9.116;2022-08-21T13:39:32;25.80;57.30
770;DHT22;368;48.698;9.116;2022-08-21T13:42:01;26.30;56.70
770;DHT22;368;48.698;9.116;2022-08-21T13:44:36;26.00;56.70
770;DHT22;368;48.698;9.116;2022-08-21T13:47:04;26.50;56.10
770;DHT22;368;48.698;9.116;2022-08-21T13:49:34;26.60;56.20
770;DHT22;368;48.698;9.116;2022-08-21T13:52:02;26.70;56.40
770;DHT22;368;48.698;9.116;2022-08-21T13:54:39;27.00;56.10
770;DHT22;368;48.698;9.116;2022-08-21T13:57:16;27.40;55.40
770;DHT22;368;48.698;9.116;2022-08-21T13:59:45;29.80;51.70
770;DHT22;368;48.698;9.116;2022-08-21T14:02:14;31.70;49.80
770;DHT22;368;48.698;9.116;2022-08-21T14:04:50;33.10;47.30
770;DHT22;368;48.698;9.116;2022-08-21T14:07:20;33.10;46.30
770;DHT22;368;48.698;9.116;2022-08-21T14:09:50;32.10;47.10
770;DHT22;368;48.698;9.116;2022-08-21T14:12:27;32.70;47.70
770;DHT22;368;48.698;9.116;2022-08-21T14:14:56;33.80;45.50
770;DHT22;368;48.698;9.116;2022-08-21T14:17:30;35.20;44.20
770;DHT22;368;48.698;9.116;2022-08-21T14:19:57;34.10;43.90
770;DHT22;368;48.698;9.116;2022-08-21T14:22:32;31.60;46.90
770;DHT22;368;48.698;9.116;2022-08-21T14:25:04;32.20;47.30
770;DHT22;368;48.698;9.116;2022-08-21T14:27:32;32.80;46.20
770;DHT22;368;48.698;9.116;2022-08-21T14:30:08;32.20;47.30
770;DHT22;368;48.698;9.116;2022-08-21T14:32:38;33.40;45.00
770;DHT22;368;48.698;9.116;2022-08-21T14:35:06;32.60;46.40
770;DHT22;368;48.698;9.116;2022-08-21T14:37:34;31.90;46.90
770;DHT22;368;48.698;9.116;2022-08-21T14:40:02;33.20;45.50
770;DHT22;368;48.698;9.116;2022-08-21T14:42:30;32.20;45.10
770;DHT22;368;48.698;9.116;2022-08-21T14:45:03;30.80;47.40
770;DHT22;368;48.698;9.116;2022-08-21T14:47:31;31.60;47.30
770;DHT22;368;48.698;9.116;2022-08-21T14:49:58;30.80;45.90
770;DHT22;368;48.698;9.116;2022-08-21T14:52:25;30.30;48.00
770;DHT22;368;48.698;9.116;2022-08-21T14:54:52;31.10;47.40
770;DHT22;368;48.698;9.116;2022-08-21T14:57:18;32.60;45.10
770;DHT22;368;48.698;9.116;2022-08-21T14:59:45;32.10;44.20
770;DHT22;368;48.698;9.116;2022-08-21T15:02:13;30.10;47.80
770;DHT22;368;48.698;9.116;2022-08-21T15:04:40;29.50;48.50
770;DHT22;368;48.698;9.116;2022-08-21T15:07:08;30.60;47.00
770;DHT22;368;48.698;9.116;2022-08-21T15:09:35;31.20;46.30
770;DHT22;368;48.698;9.116;2022-08-21T15:12:02;30.20;47.20
770;DHT22;368;48.698;9.116;2022-08-21T15:14:32;29.50;48.40
770;DHT22;368;48.698;9.116;2022-08-21T15:17:00;29.20;49.00
770;DHT22;368;48.698;9.116;2022-08-21T15:19:30;28.20;50.40
770;DHT22;368;48.698;9.116;2022-08-21T15:21:57;28.20;50.20
770;DHT22;368;48.698;9.116;2022-08-21T15:24:24;27.80;49.50
770;DHT22;368;48.698;9.116;2022-08-21T15:26:51;27.90;50.30
770;DHT22;368;48.698;9.116;2022-08-21T15:29:19;27.70;49.80
770;DHT22;368;48.698;9.116;2022-08-21T15:31:51;28.20;49.00
770;DHT22;368;48.698;9.116;2022-08-21T15:34:20;28.10;49.60
770;DHT22;368;48.698;9.116;2022-08-21T15:36:49;27.70;50.00
770;DHT22;368;48.698;9.116;2022-08-21T15:39:16;27.00;51.50
770;DHT22;368;48.698;9.116;2022-08-21T15:41:44;27.10;52.50
770;DHT22;368;48.698;9.116;2022-08-21T15:44:12;27.40;53.00
770;DHT22;368;48.698;9.116;2022-08-21T15:46:40;27.50;51.60
770;DHT22;368;48.698;9.116;2022-08-21T15:49:07;26.90;52.20
770;DHT22;368;48.698;9.116;2022-08-21T15:51:34;26.90;52.30
770;DHT22;368;48.698;9.116;2022-08-21T15:54:03;26.90;52.50
770;DHT22;368;48.698;9.116;2022-08-21T15:56:34;26.70;52.50
770;DHT22;368;48.698;9.116;2022-08-21T15:59:02;26.30;53.00
770;DHT22;368;48.698;9.116;2022-08-21T16:01:31;26.30;53.10
770;DHT22;368;48.698;9.116;2022-08-21T16:03:58;26.40;53.00
770;DHT22;368;48.698;9.116;2022-08-21T16:06:24;26.60;53.10
770;DHT22;368;48.698;9.116;2022-08-21T16:08:51;26.40;53.10
770;DHT22;368;48.698;9.116;2022-08-21T16:11:20;26.40;53.50
770;DHT22;368;48.698;9.116;2022-08-21T16:13:48;26.30;53.10
770;DHT22;368;48.698;9.116;2022-08-21T16:16:19;26.40;53.60
770;DHT22;368;48.698;9.116;2022-08-21T16:18:47;26.20;53.50
770;DHT22;368;48.698;9.116;2022-08-21T16:21:14;26.40;53.10
770;DHT22;368;48.698;9.116;2022-08-21T16:23:41;26.20;53.20
770;DHT22;368;48.698;9.116;2022-08-21T16:26:11;26.20;53.70
770;DHT22;368;48.698;9.116;2022-08-21T16:28:41;26.40;53.60
770;DHT22;368;48.698;9.116;2022-08-21T16:31:09;26.10;52.90
770;DHT22;368;48.698;9.116;2022-08-21T16:33:38;26.20;52.90
770;DHT22;368;48.698;9.116;2022-08-21T16:36:06;26.10;53.70
770;DHT22;368;48.698;9.116;2022-08-21T16:38:34;26.00;53.80
770;DHT22;368;48.698;9.116;2022-08-21T16:41:03;25.90;53.80
770;DHT22;368;48.698;9.116;2022-08-21T16:43:30;25.80;53.60
770;DHT22;368;48.698;9.116;2022-08-21T16:45:59;25.70;53.40
770;DHT22;368;48.698;9.116;2022-08-21T16:48:27;25.70;54.00
770;DHT22;368;48.698;9.116;2022-08-21T16:50:55;25.80;54.10